Time,TemperatureF,DewpointF,PressureIn,WindDirection,WindDirectionDegrees,WindSpeedMPH,WindSpeedGustMPH,Humidity,HourlyPrecipIn,Conditions,Clouds,dailyrainin,SoftwareType,DateUTC
2013-02-21 07:00:00,19.3,15.0,30.34,NNW,338,4.0,0.0,83,0.00,,---,0.00,VWS V14.01,2013-02-21 12:00:00,
2013-02-21 08:42:00,19.1,14.8,30.37,NE,37,3.0,4.0,83,0.00,,---,0.00,VWS V14.01,2013-02-21 13:42:00,
2013-02-21 08:43:00,19.1,14.5,30.37,NNE,18,5.0,6.0,82,0.00,,---,0.00,VWS V14.01,2013-02-21 13:43:00,
2013-02-21 08:48:00,19.0,14.4,30.36,NNE,12,4.0,9.0,82,0.00,,---,0.00,VWS V14.01,2013-02-21 13:48:00,
2013-02-21 08:54:00,19.1,14.8,30.37,North,9,4.0,9.0,83,0.00,,---,0.00,VWS V14.01,2013-02-21 13:54:00,
2013-02-21 08:59:00,19.1,14.5,30.37,NE,40,10.0,11.0,82,0.00,,---,0.00,VWS V14.01,2013-02-21 13:59:00,
2013-02-21 09:04:00,19.1,14.5,30.37,NE,47,4.0,7.0,82,0.00,,---,0.00,VWS V14.01,2013-02-21 14:04:00,
2013-02-21 09:09:00,19.0,14.4,30.37,NNW,328,3.0,10.0,82,0.00,,---,0.00,VWS V14.01,2013-02-21 14:09:00,
2013-02-21 09:14:00,19.1,14.5,30.37,NNE,20,9.0,10.0,82,0.00,,---,0.00,VWS V14.01,2013-02-21 14:14:00,
2013-02-21 09:19:00,19.1,14.5,30.38,North,11,4.0,10.0,82,0.00,,---,0.00,VWS V14.01,2013-02-21 14:19:00,
2013-02-21 09:24:00,19.1,14.5,30.38,NNE,21,3.0,10.0,82,0.00,,---,0.00,VWS V14.01,2013-02-21 14:24:00,
2013-02-21 09:29:00,19.0,14.1,30.38,North,354,5.0,12.0,81,0.00,,---,0.00,VWS V14.01,2013-02-21 14:29:00,
2013-02-21 09:34:00,19.0,14.1,30.39,NE,39,9.0,12.0,81,0.00,,---,0.00,VWS V14.01,2013-02-21 14:34:00,
2013-02-21 09:39:00,18.9,14.0,30.39,NNW,348,5.0,12.0,81,0.00,,---,0.00,VWS V14.01,2013-02-21 14:39:00,
2013-02-21 09:44:00,18.9,14.0,30.38,NNE,12,5.0,12.0,81,0.00,,---,0.00,VWS V14.01,2013-02-21 14:44:00,
2013-02-21 09:50:00,18.9,14.0,30.38,North,359,7.0,12.0,81,0.00,,---,0.00,VWS V14.01,2013-02-21 14:50:00,
2013-02-21 09:55:00,18.9,14.0,30.39,NNE,18,7.0,12.0,81,0.00,,---,0.00,VWS V14.01,2013-02-21 14:55:00,
2013-02-21 10:00:00,18.9,14.0,30.39,NNW,342,4.0,12.0,81,0.00,,---,0.00,VWS V14.01,2013-02-21 15:00:00,
2013-02-21 10:05:00,18.8,13.9,30.39,NNE,21,9.0,13.0,81,0.00,,---,0.00,VWS V14.01,2013-02-21 15:05:00,
2013-02-21 10:10:00,18.7,13.9,30.39,NNW,329,3.0,13.0,81,0.00,,---,0.00,VWS V14.01,2013-02-21 15:10:00,
2013-02-21 10:15:00,18.8,13.9,30.39,NNW,348,6.0,13.0,81,0.00,,---,0.00,VWS V14.01,2013-02-21 15:15:00,
2013-02-21 10:20:00,18.9,14.0,30.40,NNW,344,5.0,13.0,81,0.00,,---,0.00,VWS V14.01,2013-02-21 15:20:00,
2013-02-21 10:25:00,18.8,13.9,30.40,NNE,30,6.0,13.0,81,0.00,,---,0.00,VWS V14.01,2013-02-21 15:25:00,
2013-02-21 10:30:00,18.6,13.8,30.40,NNW,345,8.0,13.0,81,0.00,,---,0.00,VWS V14.01,2013-02-21 15:30:00,
2013-02-21 10:35:00,18.8,13.9,30.41,NNE,12,7.0,13.0,81,0.00,,---,0.00,VWS V14.01,2013-02-21 15:35:00,
2013-02-21 10:41:00,18.6,13.5,30.40,NNW,330,5.0,13.0,80,0.00,,---,0.00,VWS V14.01,2013-02-21 15:41:00,
2013-02-21 10:46:00,18.7,13.9,30.40,NNE,20,9.0,13.0,81,0.00,,---,0.00,VWS V14.01,2013-02-21 15:46:00,
2013-02-21 10:51:00,18.6,13.8,30.42,NNW,345,6.0,13.0,81,0.00,,---,0.00,VWS V14.01,2013-02-21 15:51:00,
2013-02-21 10:56:00,18.6,13.2,30.42,NNE,19,4.0,13.0,79,0.00,,---,0.00,VWS V14.01,2013-02-21 15:56:00,
2013-02-21 11:01:00,18.7,13.6,30.41,NNE,30,7.0,13.0,80,0.00,,---,0.00,VWS V14.01,2013-02-21 16:01:00,
2013-02-21 11:06:00,18.6,13.5,30.42,NNE,23,3.0,10.0,80,0.00,,---,0.00,VWS V14.01,2013-02-21 16:06:00,
2013-02-21 11:11:00,18.7,13.6,30.42,NW,322,2.0,10.0,80,0.00,,---,0.00,VWS V14.01,2013-02-21 16:11:00,
2013-02-21 11:16:00,18.8,13.4,30.42,North,350,3.0,10.0,79,0.00,,---,0.00,VWS V14.01,2013-02-21 16:16:00,
2013-02-21 11:22:00,18.8,13.4,30.41,NNW,340,5.0,10.0,79,0.00,,---,0.00,VWS V14.01,2013-02-21 16:22:00,
2013-02-21 11:27:00,18.6,13.2,30.41,NE,49,4.0,11.0,79,0.00,,---,0.00,VWS V14.01,2013-02-21 16:27:00,
2013-02-21 11:32:00,18.7,13.6,30.41,NNE,15,6.0,11.0,80,0.00,,---,0.00,VWS V14.01,2013-02-21 16:32:00,
2013-02-21 11:37:00,18.7,13.3,30.40,NNW,347,5.0,11.0,79,0.00,,---,0.00,VWS V14.01,2013-02-21 16:37:00,
2013-02-21 11:42:00,19.0,13.6,30.40,NE,46,5.0,11.0,79,0.00,,---,0.00,VWS V14.01,2013-02-21 16:42:00,
2013-02-21 11:47:00,18.9,12.9,30.40,NE,46,8.0,11.0,77,0.00,,---,0.00,VWS V14.01,2013-02-21 16:47:00,
2013-02-21 11:52:00,18.8,12.8,30.40,NE,53,3.0,11.0,77,0.00,,---,0.00,VWS V14.01,2013-02-21 16:52:00,
2013-02-21 11:57:00,19.0,13.0,30.40,East,83,5.0,11.0,77,0.00,,---,0.00,VWS V14.01,2013-02-21 16:57:00,
2013-02-21 12:02:00,19.1,12.8,30.40,ENE,57,5.0,9.0,76,0.00,,---,0.00,VWS V14.01,2013-02-21 17:02:00,
2013-02-21 12:07:00,19.4,13.1,30.39,NNE,25,2.0,9.0,76,0.00,,---,0.00,VWS V14.01,2013-02-21 17:07:00,
2013-02-21 12:13:00,19.6,13.0,30.39,ENE,58,2.0,9.0,75,0.00,,---,0.00,VWS V14.01,2013-02-21 17:13:00,
2013-02-21 12:18:00,20.4,13.8,30.40,East,86,2.0,9.0,75,0.00,,---,0.00,VWS V14.01,2013-02-21 17:18:00,
2013-02-21 12:23:00,20.5,13.2,30.40,NE,56,4.0,9.0,73,0.00,,---,0.00,VWS V14.01,2013-02-21 17:23:00,
2013-02-21 12:28:00,20.8,13.5,30.40,ESE,117,1.0,9.0,73,0.00,,---,0.00,VWS V14.01,2013-02-21 17:28:00,
2013-02-21 12:33:00,21.0,14.0,30.40,NE,47,2.0,9.0,74,0.00,,---,0.00,VWS V14.01,2013-02-21 17:33:00,
2013-02-21 12:38:00,20.8,13.8,30.39,NE,54,3.0,9.0,74,0.00,,---,0.00,VWS V14.01,2013-02-21 17:38:00,
2013-02-21 12:43:00,20.4,13.4,30.39,ENE,57,2.0,9.0,74,0.00,,---,0.00,VWS V14.01,2013-02-21 17:43:00,
2013-02-21 12:48:00,20.6,13.6,30.38,ENE,57,6.0,9.0,74,0.00,,---,0.00,VWS V14.01,2013-02-21 17:48:00,
2013-02-21 12:54:00,20.8,13.8,30.38,NE,51,4.0,9.0,74,0.00,,---,0.00,VWS V14.01,2013-02-21 17:54:00,
2013-02-21 12:59:00,21.4,15.0,30.38,North,358,7.0,9.0,76,0.00,,---,0.00,VWS V14.01,2013-02-21 17:59:00,
2013-02-21 13:04:00,21.5,14.8,30.38,WNW,294,0.0,2.0,75,0.00,,---,0.00,VWS V14.01,2013-02-21 18:04:00,
2013-02-21 13:09:00,22.3,15.3,30.38,NE,50,7.0,9.0,74,0.00,,---,0.00,VWS V14.01,2013-02-21 18:09:00,
2013-02-21 13:14:00,21.5,13.9,30.38,NNW,332,4.0,11.0,72,0.00,,---,0.00,VWS V14.01,2013-02-21 18:14:00,
2013-02-21 13:19:00,21.6,14.9,30.39,ENE,68,2.0,11.0,75,0.00,,---,0.00,VWS V14.01,2013-02-21 18:19:00,
2013-02-21 13:24:00,22.1,15.1,30.39,North,9,2.0,11.0,74,0.00,,---,0.00,VWS V14.01,2013-02-21 18:24:00,
2013-02-21 13:29:00,22.7,15.1,30.40,ENE,71,1.0,11.0,72,0.00,,---,0.00,VWS V14.01,2013-02-21 18:29:00,
2013-02-21 13:34:00,23.3,15.9,30.40,South,186,0.0,11.0,73,0.00,,---,0.00,VWS V14.01,2013-02-21 18:34:00,
2013-02-21 13:40:00,23.8,15.5,30.41,SSW,207,0.0,11.0,70,0.00,,---,0.00,VWS V14.01,2013-02-21 18:40:00,
2013-02-21 13:45:00,24.5,16.1,30.40,NNE,32,2.0,11.0,70,0.00,,---,0.00,VWS V14.01,2013-02-21 18:45:00,
2013-02-21 13:50:00,23.8,15.1,30.40,NNE,19,1.0,11.0,69,0.00,,---,0.00,VWS V14.01,2013-02-21 18:50:00,
2013-02-21 13:55:00,23.4,15.1,30.40,NNE,15,6.0,11.0,70,0.00,,---,0.00,VWS V14.01,2013-02-21 18:55:00,
2013-02-21 14:00:00,22.8,14.5,30.39,North,8,4.0,11.0,70,0.00,,---,0.00,VWS V14.01,2013-02-21 19:00:00,
2013-02-21 14:05:00,22.9,15.2,30.38,North,352,2.0,5.0,72,0.00,,---,0.00,VWS V14.01,2013-02-21 19:05:00,
2013-02-21 14:10:00,22.5,14.5,30.38,NE,48,2.0,8.0,71,0.00,,---,0.00,VWS V14.01,2013-02-21 19:10:00,
2013-02-21 14:16:00,22.5,14.9,30.37,NNE,33,2.0,8.0,72,0.00,,---,0.00,VWS V14.01,2013-02-21 19:16:00,
2013-02-21 14:21:00,22.3,14.3,30.38,ENE,63,2.0,8.0,71,0.00,,---,0.00,VWS V14.01,2013-02-21 19:21:00,
2013-02-21 14:26:00,22.5,14.5,30.37,West,270,1.0,8.0,71,0.00,,---,0.00,VWS V14.01,2013-02-21 19:26:00,
2013-02-21 14:31:00,23.0,15.3,30.37,NW,312,2.0,8.0,72,0.00,,---,0.00,VWS V14.01,2013-02-21 19:31:00,
2013-02-21 14:36:00,23.8,16.4,30.36,NW,319,3.0,8.0,73,0.00,,---,0.00,VWS V14.01,2013-02-21 19:36:00,
2013-02-21 14:41:00,23.6,15.6,30.36,NNE,25,7.0,10.0,71,0.00,,---,0.00,VWS V14.01,2013-02-21 19:41:00,
2013-02-21 14:46:00,23.1,14.8,30.37,East,83,3.0,10.0,70,0.00,,---,0.00,VWS V14.01,2013-02-21 19:46:00,
2013-02-21 14:51:00,23.1,15.1,30.37,NE,53,2.0,10.0,71,0.00,,---,0.00,VWS V14.01,2013-02-21 19:51:00,
2013-02-21 14:56:00,23.3,15.6,30.36,NE,39,8.0,10.0,72,0.00,,---,0.00,VWS V14.01,2013-02-21 19:56:00,
2013-02-21 15:01:00,23.4,15.4,30.37,NE,43,5.0,8.0,71,0.00,,---,0.00,VWS V14.01,2013-02-21 20:01:00,
2013-02-21 15:07:00,23.5,15.2,30.37,East,94,4.0,8.0,70,0.00,,---,0.00,VWS V14.01,2013-02-21 20:07:00,
2013-02-21 15:12:00,23.5,15.2,30.36,East,101,4.0,10.0,70,0.00,,---,0.00,VWS V14.01,2013-02-21 20:12:00,
2013-02-21 15:17:00,23.5,15.2,30.35,ENE,60,2.0,10.0,70,0.00,,---,0.00,VWS V14.01,2013-02-21 20:17:00,
2013-02-21 15:22:00,24.2,16.8,30.35,ENE,61,5.0,10.0,73,0.00,,---,0.00,VWS V14.01,2013-02-21 20:22:00,
2013-02-21 15:27:00,24.4,16.0,30.35,East,81,8.0,11.0,70,0.00,,---,0.00,VWS V14.01,2013-02-21 20:27:00,
2013-02-21 15:32:00,24.5,16.5,30.34,North,356,5.0,11.0,71,0.00,,---,0.00,VWS V14.01,2013-02-21 20:32:00,
2013-02-21 15:37:00,24.0,15.0,30.34,NE,43,5.0,11.0,68,0.00,,---,0.00,VWS V14.01,2013-02-21 20:37:00,
2013-02-21 15:42:00,23.9,15.2,30.33,NE,53,7.0,11.0,69,0.00,,---,0.00,VWS V14.01,2013-02-21 20:42:00,
2013-02-21 15:47:00,24.0,15.3,30.33,ESE,105,5.0,11.0,69,0.00,,---,0.00,VWS V14.01,2013-02-21 20:47:00,
2013-02-21 15:52:00,24.3,15.6,30.32,NE,44,11.0,14.0,69,0.00,,---,0.00,VWS V14.01,2013-02-21 20:52:00,
2013-02-21 15:57:00,24.2,15.5,30.32,NE,47,6.0,14.0,69,0.00,,---,0.00,VWS V14.01,2013-02-21 20:57:00,
2013-02-21 16:03:00,24.4,15.7,30.32,NE,37,5.0,7.0,69,0.00,,---,0.00,VWS V14.01,2013-02-21 21:03:00,
2013-02-21 16:08:00,24.6,15.6,30.32,NE,53,7.0,12.0,68,0.00,,---,0.00,VWS V14.01,2013-02-21 21:08:00,
2013-02-21 16:13:00,24.6,15.6,30.31,ENE,69,6.0,12.0,68,0.00,,---,0.00,VWS V14.01,2013-02-21 21:13:00,
2013-02-21 16:18:00,24.7,15.7,30.32,ESE,108,10.0,12.0,68,0.00,,---,0.00,VWS V14.01,2013-02-21 21:18:00,
2013-02-21 16:23:00,24.6,15.2,30.33,NE,50,2.0,12.0,67,0.00,,---,0.00,VWS V14.01,2013-02-21 21:23:00,
2013-02-21 16:28:00,24.7,15.7,30.33,NE,51,6.0,13.0,68,0.00,,---,0.00,VWS V14.01,2013-02-21 21:28:00,
2013-02-21 16:33:00,24.7,15.7,30.34,NE,55,5.0,13.0,68,0.00,,---,0.00,VWS V14.01,2013-02-21 21:33:00,
2013-02-21 16:38:00,24.6,15.6,30.35,ENE,70,3.0,13.0,68,0.00,,---,0.00,VWS V14.01,2013-02-21 21:38:00,
2013-02-21 16:43:00,24.6,15.6,30.35,ENE,57,4.0,13.0,68,0.00,,---,0.00,VWS V14.01,2013-02-21 21:43:00,
2013-02-21 16:49:00,24.7,15.7,30.36,East,79,2.0,13.0,68,0.00,,---,0.00,VWS V14.01,2013-02-21 21:49:00,
2013-02-21 16:54:00,24.8,15.4,30.37,NE,53,4.0,13.0,67,0.00,,---,0.00,VWS V14.01,2013-02-21 21:54:00,
2013-02-21 16:59:00,24.7,15.3,30.38,NE,49,3.0,13.0,67,0.00,,---,0.00,VWS V14.01,2013-02-21 21:59:00,
2013-02-21 17:04:00,24.6,15.6,30.38,NNE,32,7.0,8.0,68,0.00,,---,0.00,VWS V14.01,2013-02-21 22:04:00,
2013-02-21 17:09:00,24.5,15.1,30.38,ENE,63,5.0,10.0,67,0.00,,---,0.00,VWS V14.01,2013-02-21 22:09:00,
2013-02-21 17:14:00,24.4,15.0,30.39,East,96,7.0,10.0,67,0.00,,---,0.00,VWS V14.01,2013-02-21 22:14:00,
2013-02-21 17:19:00,24.3,14.9,30.39,East,86,7.0,10.0,67,0.00,,---,0.00,VWS V14.01,2013-02-21 22:19:00,
2013-02-21 17:24:00,24.2,14.8,30.39,ENE,59,7.0,10.0,67,0.00,,---,0.00,VWS V14.01,2013-02-21 22:24:00,
2013-02-21 17:29:00,24.1,14.7,30.39,East,80,6.0,11.0,67,0.00,,---,0.00,VWS V14.01,2013-02-21 22:29:00,
2013-02-21 17:35:00,24.1,15.4,30.39,NE,53,3.0,11.0,69,0.00,,---,0.00,VWS V14.01,2013-02-21 22:35:00,
2013-02-21 17:40:00,23.9,14.9,30.38,NE,53,5.0,11.0,68,0.00,,---,0.00,VWS V14.01,2013-02-21 22:40:00,
2013-02-21 17:45:00,23.7,14.7,30.38,ENE,60,7.0,11.0,68,0.00,,---,0.00,VWS V14.01,2013-02-21 22:45:00,
2013-02-21 17:50:00,23.6,14.9,30.39,ESE,108,3.0,11.0,69,0.00,,---,0.00,VWS V14.01,2013-02-21 22:50:00,
2013-02-21 17:55:00,23.4,14.4,30.38,NE,53,7.0,11.0,68,0.00,,---,0.00,VWS V14.01,2013-02-21 22:55:00,
2013-02-21 18:00:00,23.2,14.2,30.38,East,82,5.0,11.0,68,0.00,,---,0.00,VWS V14.01,2013-02-21 23:00:00,
2013-02-21 18:05:00,23.1,14.1,30.38,ENE,59,4.0,9.0,68,0.00,,---,0.00,VWS V14.01,2013-02-21 23:05:00,
2013-02-21 18:11:00,23.0,14.0,30.37,ENE,65,4.0,10.0,68,0.00,,---,0.00,VWS V14.01,2013-02-21 23:11:00,
2013-02-21 18:16:00,22.9,14.3,30.37,East,82,5.0,10.0,69,0.00,,---,0.00,VWS V14.01,2013-02-21 23:16:00,
2013-02-21 18:21:00,22.8,14.2,30.37,ENE,65,4.0,10.0,69,0.00,,---,0.00,VWS V14.01,2013-02-21 23:21:00,
2013-02-21 18:26:00,22.8,14.2,30.37,ENE,58,3.0,10.0,69,0.00,,---,0.00,VWS V14.01,2013-02-21 23:26:00,
2013-02-21 18:31:00,22.7,14.4,30.37,ENE,67,5.0,10.0,70,0.00,,---,0.00,VWS V14.01,2013-02-21 23:31:00,
2013-02-21 18:36:00,22.7,14.4,30.37,East,94,5.0,10.0,70,0.00,,---,0.00,VWS V14.01,2013-02-21 23:36:00,
2013-02-21 18:41:00,22.6,14.6,30.37,East,91,3.0,10.0,71,0.00,,---,0.00,VWS V14.01,2013-02-21 23:41:00,
2013-02-21 18:46:00,22.5,14.5,30.38,East,84,3.0,10.0,71,0.00,,---,0.00,VWS V14.01,2013-02-21 23:46:00,
2013-02-21 18:52:00,22.3,14.3,30.37,East,93,6.0,13.0,71,0.00,,---,0.00,VWS V14.01,2013-02-21 23:52:00,
2013-02-21 18:57:00,22.1,14.5,30.37,East,82,3.0,13.0,72,0.00,,---,0.00,VWS V14.01,2013-02-21 23:57:00,
2013-02-21 19:02:00,22.0,14.4,30.38,ENE,64,6.0,6.0,72,0.00,,---,0.00,VWS V14.01,2013-02-22 00:02:00,
2013-02-21 19:07:00,21.8,14.2,30.37,ENE,77,6.0,11.0,72,0.00,,---,0.00,VWS V14.01,2013-02-22 00:07:00,
2013-02-21 19:12:00,21.7,14.4,30.38,ENE,77,3.0,11.0,73,0.00,,---,0.00,VWS V14.01,2013-02-22 00:12:00,
2013-02-21 19:17:00,21.6,14.6,30.37,ENE,60,5.0,11.0,74,0.00,,---,0.00,VWS V14.01,2013-02-22 00:17:00,
2013-02-21 19:22:00,21.4,14.4,30.37,ESE,107,9.0,11.0,74,0.00,,---,0.00,VWS V14.01,2013-02-22 00:22:00,
2013-02-21 19:27:00,21.2,14.5,30.37,East,83,4.0,11.0,75,0.00,,---,0.00,VWS V14.01,2013-02-22 00:27:00,
2013-02-21 19:32:00,21.1,14.4,30.36,ESE,113,3.0,11.0,75,0.00,,---,0.00,VWS V14.01,2013-02-22 00:32:00,
2013-02-21 19:38:00,21.0,14.3,30.36,ENE,70,8.0,11.0,75,0.00,,---,0.00,VWS V14.01,2013-02-22 00:38:00,
2013-02-21 19:43:00,20.8,14.4,30.37,ENE,77,5.0,11.0,76,0.00,,---,0.00,VWS V14.01,2013-02-22 00:43:00,
2013-02-21 19:48:00,20.7,14.4,30.37,East,89,7.0,11.0,76,0.00,,---,0.00,VWS V14.01,2013-02-22 00:48:00,
2013-02-21 19:53:00,20.5,14.4,30.37,ENE,65,15.0,15.0,77,0.00,,---,0.00,VWS V14.01,2013-02-22 00:53:00,
2013-02-21 19:58:00,20.4,14.1,30.36,NE,53,6.0,17.0,76,0.00,,---,0.00,VWS V14.01,2013-02-22 00:58:00,
2013-02-21 20:03:00,20.3,14.3,30.36,East,79,6.0,9.0,77,0.00,,---,0.00,VWS V14.01,2013-02-22 01:03:00,
2013-02-21 20:08:00,20.3,14.6,30.36,ENE,67,8.0,12.0,78,0.00,,---,0.00,VWS V14.01,2013-02-22 01:08:00,
2013-02-21 20:13:00,20.2,14.2,30.35,ENE,58,6.0,14.0,77,0.00,,---,0.00,VWS V14.01,2013-02-22 01:13:00,
2013-02-21 20:18:00,20.1,14.4,30.35,East,82,5.0,16.0,78,0.00,,---,0.00,VWS V14.01,2013-02-22 01:18:00,
2013-02-21 20:23:00,20.0,14.3,30.35,ENE,60,5.0,16.0,78,0.00,,---,0.00,VWS V14.01,2013-02-22 01:23:00,
2013-02-21 20:28:00,20.0,14.3,30.35,ENE,57,8.0,16.0,78,0.00,,---,0.00,VWS V14.01,2013-02-22 01:28:00,
2013-02-21 20:34:00,19.9,14.2,30.34,NE,51,6.0,16.0,78,0.00,,---,0.00,VWS V14.01,2013-02-22 01:34:00,
2013-02-21 20:39:00,19.8,14.4,30.34,East,82,11.0,16.0,79,0.00,,---,0.00,VWS V14.01,2013-02-22 01:39:00,
2013-02-21 20:44:00,19.8,14.4,30.34,ENE,58,9.0,16.0,79,0.00,,---,0.00,VWS V14.01,2013-02-22 01:44:00,
2013-02-21 20:49:00,19.8,14.4,30.34,East,85,5.0,16.0,79,0.00,,---,0.00,VWS V14.01,2013-02-22 01:49:00,
2013-02-21 20:54:00,19.7,14.3,30.34,East,88,5.0,16.0,79,0.00,,---,0.00,VWS V14.01,2013-02-22 01:54:00,
2013-02-21 20:59:00,19.7,14.5,30.33,East,79,8.0,16.0,80,0.00,,---,0.00,VWS V14.01,2013-02-22 01:59:00,
2013-02-21 21:04:00,19.6,14.4,30.33,ENE,58,10.0,15.0,80,0.00,,---,0.00,VWS V14.01,2013-02-22 02:04:00,
2013-02-21 21:09:00,19.7,14.5,30.33,East,94,13.0,15.0,80,0.00,,---,0.00,VWS V14.01,2013-02-22 02:09:00,
2013-02-21 21:14:00,19.7,14.5,30.33,East,96,4.0,15.0,80,0.00,,---,0.00,VWS V14.01,2013-02-22 02:14:00,
2013-02-21 21:19:00,19.7,14.5,30.33,East,81,8.0,15.0,80,0.00,,---,0.00,VWS V14.01,2013-02-22 02:19:00,
2013-02-21 21:25:00,19.7,14.5,30.33,ENE,77,7.0,15.0,80,0.00,,---,0.00,VWS V14.01,2013-02-22 02:25:00,
2013-02-21 21:30:00,19.7,14.5,30.34,ESE,115,6.0,15.0,80,0.00,,---,0.00,VWS V14.01,2013-02-22 02:30:00,
2013-02-21 21:35:00,19.8,14.6,30.35,East,89,9.0,15.0,80,0.00,,---,0.00,VWS V14.01,2013-02-22 02:35:00,
2013-02-21 21:40:00,19.8,14.9,30.34,East,93,8.0,15.0,81,0.00,,---,0.00,VWS V14.01,2013-02-22 02:40:00,
2013-02-21 21:45:00,19.8,14.9,30.34,ENE,68,7.0,15.0,81,0.00,,---,0.00,VWS V14.01,2013-02-22 02:45:00,
2013-02-21 21:50:00,19.9,15.0,30.34,ENE,70,7.0,15.0,81,0.00,,---,0.00,VWS V14.01,2013-02-22 02:50:00,
2013-02-21 21:55:00,19.9,15.0,30.34,ENE,63,4.0,15.0,81,0.00,,---,0.00,VWS V14.01,2013-02-22 02:55:00,
2013-02-21 22:00:00,19.8,14.9,30.34,ENE,59,11.0,15.0,81,0.00,,---,0.00,VWS V14.01,2013-02-22 03:00:00,
2013-02-21 22:06:00,19.9,15.0,30.33,East,85,7.0,13.0,81,0.00,,---,0.00,VWS V14.01,2013-02-22 03:06:00,
2013-02-21 22:11:00,19.9,15.3,30.34,NE,53,9.0,13.0,82,0.00,,---,0.00,VWS V14.01,2013-02-22 03:11:00,
2013-02-21 22:16:00,19.9,15.3,30.34,ENE,70,12.0,14.0,82,0.00,,---,0.00,VWS V14.01,2013-02-22 03:16:00,
2013-02-21 22:21:00,19.9,15.3,30.33,East,83,6.0,14.0,82,0.00,,---,0.00,VWS V14.01,2013-02-22 03:21:00,
2013-02-21 22:26:00,20.0,15.4,30.33,NE,53,14.0,14.0,82,0.00,,---,0.00,VWS V14.01,2013-02-22 03:26:00,
2013-02-21 22:31:00,20.0,15.4,30.33,ESE,109,4.0,14.0,82,0.00,,---,0.00,VWS V14.01,2013-02-22 03:31:00,
2013-02-21 22:36:00,20.1,15.8,30.33,East,87,6.0,14.0,83,0.00,,---,0.00,VWS V14.01,2013-02-22 03:36:00,
2013-02-21 22:41:00,20.1,15.8,30.33,East,86,3.0,14.0,83,0.00,,---,0.00,VWS V14.01,2013-02-22 03:41:00,
2013-02-21 22:47:00,20.1,15.8,30.33,East,101,5.0,14.0,83,0.00,,---,0.00,VWS V14.01,2013-02-22 03:47:00,
2013-02-21 22:52:00,20.2,15.9,30.32,East,84,4.0,14.0,83,0.00,,---,0.00,VWS V14.01,2013-02-22 03:52:00,
2013-02-21 22:57:00,20.2,16.1,30.32,NE,54,6.0,14.0,84,0.00,,---,0.00,VWS V14.01,2013-02-22 03:57:00,
2013-02-21 23:02:00,20.2,16.1,30.32,ENE,63,8.0,12.0,84,0.00,,---,0.00,VWS V14.01,2013-02-22 04:02:00,
2013-02-21 23:07:00,20.2,16.1,30.32,East,84,7.0,12.0,84,0.00,,---,0.00,VWS V14.01,2013-02-22 04:07:00,
2013-02-21 23:12:00,20.3,16.5,30.32,East,87,7.0,14.0,85,0.00,,---,0.00,VWS V14.01,2013-02-22 04:12:00,
2013-02-21 23:17:00,20.4,16.6,30.32,East,87,4.0,14.0,85,0.00,,---,0.00,VWS V14.01,2013-02-22 04:17:00,
2013-02-21 23:22:00,20.4,16.6,30.32,ESE,103,7.0,14.0,85,0.00,,---,0.00,VWS V14.01,2013-02-22 04:22:00,
2013-02-21 23:27:00,20.5,17.0,30.32,ESE,105,5.0,14.0,86,0.00,,---,0.00,VWS V14.01,2013-02-22 04:27:00,
2013-02-21 23:32:00,20.5,17.0,30.32,East,79,6.0,14.0,86,0.00,,---,0.00,VWS V14.01,2013-02-22 04:32:00,
2013-02-21 23:38:00,20.6,17.1,30.32,East,93,5.0,14.0,86,0.00,,---,0.00,VWS V14.01,2013-02-22 04:38:00,
2013-02-21 23:43:00,20.7,17.2,30.31,East,82,8.0,14.0,86,0.00,,---,0.00,VWS V14.01,2013-02-22 04:43:00,
2013-02-21 23:48:00,20.7,17.5,30.30,East,82,7.0,14.0,87,0.00,,---,0.00,VWS V14.01,2013-02-22 04:48:00,
2013-02-21 23:53:00,20.7,17.5,30.30,ENE,63,5.0,14.0,87,0.00,,---,0.00,VWS V14.01,2013-02-22 04:53:00,
2013-02-21 23:58:00,20.8,17.5,30.30,East,79,6.0,14.0,87,0.00,,---,0.00,VWS V14.01,2013-02-22 04:58:00,